Time;durP1;ratioP1;P1;durP2;ratioP2;P2;SDS_P1;SDS_P2;PMS_P1;PMS_P2;Temp;Humidity;BMP_temperature;BMP_pressure;BME280_temperature;BME280_humidity;BME280_pressure;Samples;Min_cycle;Max_cycle;Signal;HPM_P1;HPM_P2
2021/11/14 00:00:08;;;;;;;18.60;15.50;;;10.70;99.90;;;;;;5108547;28;20133;-43
2021/11/14 00:02:33;;;;;;;18.92;14.65;;;10.70;99.90;;;;;;5108019;28;20035;-43
2021/11/14 00:04:59;;;;;;;19.08;15.60;;;10.70;99.90;;;;;;5108365;28;20027;-43
2021/11/14 00:07:24;;;;;;;16.30;13.48;;;10.70;99.90;;;;;;5108534;28;20031;-43
2021/11/14 00:09:50;;;;;;;19.50;15.40;;;10.70;99.90;;;;;;5108617;28;20028;-42
2021/11/14 00:12:15;;;;;;;20.13;15.63;;;10.60;99.90;;;;;;5108194;28;20600;-42
2021/11/14 00:14:41;;;;;;;19.92;16.70;;;10.60;99.90;;;;;;5108271;28;20105;-42
2021/11/14 00:17:06;;;;;;;21.05;17.08;;;10.60;99.90;;;;;;5108516;28;20034;-43
2021/11/14 00:19:32;;;;;;;19.85;15.73;;;10.60;99.90;;;;;;5107713;28;20030;-43
2021/11/14 00:21:58;;;;;;;19.75;15.43;;;10.50;99.90;;;;;;5108122;28;20019;-43
2021/11/14 00:24:24;;;;;;;17.58;14.98;;;10.50;99.90;;;;;;5108100;28;20103;-43
2021/11/14 00:26:49;;;;;;;16.05;13.70;;;10.50;99.90;;;;;;5107928;28;20110;-43
2021/11/14 00:29:15;;;;;;;17.92;14.65;;;10.50;99.90;;;;;;5108771;28;20501;-43
2021/11/14 00:31:41;;;;;;;17.88;14.75;;;10.50;99.90;;;;;;5107820;28;20546;-43
2021/11/14 00:34:07;;;;;;;18.17;14.98;;;10.50;99.90;;;;;;5107906;28;20023;-41
2021/11/14 00:36:38;;;;;;;19.63;16.00;;;10.50;99.90;;;;;;5108061;28;20024;-41
2021/11/14 00:39:08;;;;;;;20.52;15.13;;;10.60;99.90;;;;;;5108444;28;20027;-43
2021/11/14 00:41:37;;;;;;;17.33;14.43;;;10.60;99.90;;;;;;5108726;28;20024;-43
2021/11/14 00:44:04;;;;;;;17.15;14.38;;;10.60;99.90;;;;;;5107691;28;20032;-42
2021/11/14 00:46:30;;;;;;;16.55;14.05;;;10.60;99.90;;;;;;5106752;28;20040;-42
2021/11/14 00:48:55;;;;;;;16.80;14.35;;;10.70;99.90;;;;;;5107367;28;20046;-44
2021/11/14 00:51:29;;;;;;;18.65;14.25;;;10.60;99.90;;;;;;5107977;28;20022;-43
2021/11/14 00:53:58;;;;;;;17.90;14.73;;;10.70;99.90;;;;;;5107222;28;20039;-43
2021/11/14 00:56:23;;;;;;;16.70;14.25;;;10.60;99.90;;;;;;5108005;28;20031;-42
2021/11/14 00:58:50;;;;;;;16.67;13.13;;;10.60;99.90;;;;;;5107621;28;20019;-42
2021/11/14 01:01:15;;;;;;;15.02;12.55;;;10.70;99.90;;;;;;5107173;28;20027;-41
2021/11/14 01:03:41;;;;;;;16.70;13.20;;;10.70;99.90;;;;;;5107813;28;20385;-42
2021/11/14 01:06:07;;;;;;;15.43;13.05;;;10.70;99.90;;;;;;5107724;28;20020;-42
2021/11/14 01:08:32;;;;;;;16.60;13.48;;;10.70;99.90;;;;;;5106577;28;20066;-43
2021/11/14 01:11:02;;;;;;;17.55;14.30;;;10.70;99.90;;;;;;5107743;28;20440;-43
2021/11/14 01:13:28;;;;;;;16.30;13.40;;;10.70;99.90;;;;;;5107032;28;20378;-43
2021/11/14 01:15:54;;;;;;;19.42;14.48;;;10.60;99.90;;;;;;5095163;28;20545;-43
2021/11/14 01:18:21;;;;;;;17.08;14.10;;;10.50;99.90;;;;;;5107793;28;20112;-43
2021/11/14 01:20:50;;;;;;;16.20;13.95;;;10.40;99.90;;;;;;5107321;28;20016;-43
2021/11/14 01:23:16;;;;;;;20.58;15.60;;;10.40;99.90;;;;;;5106984;28;20035;-43
2021/11/14 01:25:43;;;;;;;18.05;14.02;;;10.30;99.90;;;;;;5106861;28;20079;-42
2021/11/14 01:28:09;;;;;;;19.75;14.60;;;10.20;99.90;;;;;;5107401;28;20027;-43
2021/11/14 01:30:39;;;;;;;18.38;15.07;;;10.10;99.90;;;;;;5105974;28;20020;-43
2021/11/14 01:33:06;;;;;;;16.45;13.88;;;10.10;99.90;;;;;;5107739;28;20113;-43
2021/11/14 01:35:33;;;;;;;18.45;14.40;;;10.00;99.90;;;;;;5106312;28;20413;-42
2021/11/14 01:37:58;;;;;;;16.60;13.55;;;10.10;99.90;;;;;;5107049;28;20023;-43
2021/11/14 01:40:31;;;;;;;18.02;13.02;;;10.10;99.90;;;;;;5107135;28;20485;-43
2021/11/14 01:42:57;;;;;;;15.57;13.00;;;10.10;99.90;;;;;;5106611;28;20031;-42
2021/11/14 01:45:24;;;;;;;14.25;11.45;;;10.10;99.90;;;;;;5106929;28;20039;-42
2021/11/14 01:47:49;;;;;;;19.20;14.48;;;10.10;99.90;;;;;;5106747;28;20495;-42
2021/11/14 01:50:17;;;;;;;18.67;14.23;;;10.10;99.90;;;;;;5106299;28;20127;-43
2021/11/14 01:52:44;;;;;;;17.05;13.77;;;10.10;99.90;;;;;;5106904;28;20167;-43
2021/11/14 01:55:13;;;;;;;17.85;13.88;;;10.00;99.90;;;;;;5107227;28;20034;-43
2021/11/14 01:57:39;;;;;;;18.20;13.95;;;10.00;99.90;;;;;;5106022;28;20662;-43
2021/11/14 02:00:16;;;;;;;20.73;14.93;;;10.00;99.90;;;;;;5106824;28;20083;-43
2021/11/14 02:02:42;;;;;;;17.05;13.45;;;10.10;99.90;;;;;;5106798;28;20023;-43
2021/11/14 02:05:09;;;;;;;17.38;12.95;;;10.10;99.90;;;;;;5106356;28;20107;-43
2021/11/14 02:07:34;;;;;;;15.57;12.07;;;10.10;99.90;;;;;;5106319;28;20117;-43
2021/11/14 02:10:00;;;;;;;16.83;13.13;;;10.10;99.90;;;;;;5106820;28;20051;-42
2021/11/14 02:12:26;;;;;;;17.67;13.70;;;10.10;99.90;;;;;;5106018;28;20474;-44
2021/11/14 02:14:52;;;;;;;15.52;12.30;;;10.10;99.90;;;;;;5106001;28;20043;-43
2021/11/14 02:17:17;;;;;;;17.05;13.38;;;10.00;99.90;;;;;;5106614;28;20024;-43
2021/11/14 02:19:51;;;;;;;17.02;12.93;;;10.00;99.90;;;;;;5105864;28;20035;-44
2021/11/14 02:22:18;;;;;;;20.00;13.45;;;10.00;99.90;;;;;;5106721;28;20426;-42
2021/11/14 02:24:44;;;;;;;19.67;14.23;;;9.90;99.90;;;;;;5107860;28;20028;-45
2021/11/14 02:27:10;;;;;;;20.85;15.55;;;9.90;99.90;;;;;;5110193;28;20027;-43
2021/11/14 02:29:36;;;;;;;19.88;15.27;;;9.80;99.90;;;;;;5110621;28;20043;-43
2021/11/14 02:32:02;;;;;;;19.65;15.00;;;9.80;99.90;;;;;;5109670;28;20088;-42
2021/11/14 02:34:30;;;;;;;18.90;14.68;;;9.70;99.90;;;;;;5110885;28;20031;-43
2021/11/14 02:36:56;;;;;;;20.98;15.40;;;9.70;99.90;;;;;;5109999;28;20018;-43
2021/11/14 02:39:21;;;;;;;19.42;14.73;;;9.70;99.90;;;;;;5110040;28;20019;-43
2021/11/14 02:41:47;;;;;;;16.85;13.30;;;9.70;99.90;;;;;;5110134;28;20358;-42
2021/11/14 02:44:13;;;;;;;20.02;14.65;;;9.70;99.90;;;;;;5110617;27;20341;-43
2021/11/14 02:46:39;;;;;;;21.13;15.48;;;9.70;99.90;;;;;;5109493;28;20397;-42
2021/11/14 02:49:05;;;;;;;21.23;15.65;;;9.70;99.90;;;;;;5109907;28;20040;-43
2021/11/14 02:51:32;;;;;;;19.98;14.35;;;9.80;99.90;;;;;;5109974;28;20026;-43
2021/11/14 02:53:59;;;;;;;19.52;15.15;;;9.80;99.90;;;;;;5109504;28;20028;-43
2021/11/14 02:56:25;;;;;;;25.42;16.92;;;9.80;99.90;;;;;;5110233;28;20512;-43
2021/11/14 02:58:51;;;;;;;22.83;16.15;;;9.80;99.90;;;;;;5110043;28;20102;-43
2021/11/14 03:01:22;;;;;;;23.73;16.25;;;9.90;99.90;;;;;;5109960;28;20027;-42
2021/11/14 03:03:49;;;;;;;24.67;17.00;;;9.90;99.90;;;;;;5109899;28;20027;-43
2021/11/14 03:06:15;;;;;;;25.30;16.95;;;10.00;99.90;;;;;;5110207;28;20032;-43
2021/11/14 03:08:41;;;;;;;25.08;17.17;;;10.00;99.90;;;;;;5108732;28;20035;-43
2021/11/14 03:11:06;;;;;;;25.98;16.58;;;10.00;99.90;;;;;;5110040;28;20107;-43
2021/11/14 03:13:33;;;;;;;22.50;15.88;;;10.00;99.90;;;;;;5109401;28;20035;-41
2021/11/14 03:16:03;;;;;;;24.38;16.95;;;10.00;99.90;;;;;;5108426;28;20104;-43
2021/11/14 03:18:28;;;;;;;25.10;17.30;;;10.10;99.90;;;;;;5109574;28;20546;-43
2021/11/14 03:20:55;;;;;;;27.50;17.88;;;10.10;99.90;;;;;;5108989;28;20134;-42
2021/11/14 03:23:24;;;;;;;27.00;18.05;;;10.10;99.90;;;;;;5109640;28;20042;-43
2021/11/14 03:25:50;;;;;;;24.38;17.00;;;10.10;99.90;;;;;;5109968;27;20027;-43
2021/11/14 03:28:17;;;;;;;30.02;19.73;;;10.20;99.90;;;;;;5108477;28;20466;-42
2021/11/14 03:30:43;;;;;;;26.90;17.65;;;10.20;99.90;;;;;;5109325;28;20852;-42
2021/11/14 03:33:12;;;;;;;29.95;19.38;;;10.20;99.90;;;;;;5109635;28;20087;-43
2021/11/14 03:35:56;;;;;;;31.88;20.05;;;10.30;99.90;;;;;;5108356;28;20031;-43
2021/11/14 03:38:34;;;;;;;31.38;19.38;;;10.30;99.90;;;;;;5109447;28;20045;-43
2021/11/14 03:41:05;;;;;;;26.40;17.73;;;10.30;99.90;;;;;;5108858;28;20127;-43
2021/11/14 03:43:37;;;;;;;31.55;19.88;;;10.30;99.90;;;;;;5108207;28;20399;-43
2021/11/14 03:46:05;;;;;;;27.30;18.98;;;10.30;99.90;;;;;;5109063;28;20023;-42
2021/11/14 03:48:33;;;;;;;31.00;19.73;;;10.30;99.90;;;;;;5109298;28;20035;-42
2021/11/14 03:50:59;;;;;;;30.38;19.35;;;10.30;99.90;;;;;;5108065;28;20368;-42
2021/11/14 03:53:25;;;;;;;31.55;18.92;;;10.40;99.90;;;;;;5108801;28;20049;-43
2021/11/14 03:55:52;;;;;;;28.92;19.13;;;10.40;99.90;;;;;;5108645;28;20019;-42
2021/11/14 03:58:18;;;;;;;35.45;21.95;;;10.40;99.90;;;;;;5108818;28;20122;-43
2021/11/14 04:00:47;;;;;;;33.10;21.23;;;10.40;99.90;;;;;;5108448;28;20027;-43
2021/11/14 04:03:14;;;;;;;30.83;20.35;;;10.40;99.90;;;;;;5108107;27;20100;-42
2021/11/14 04:05:41;;;;;;;33.53;20.10;;;10.40;99.90;;;;;;5108138;28;20449;-44
2021/11/14 04:08:13;;;;;;;31.35;19.55;;;10.30;99.90;;;;;;5108763;28;20035;-43
2021/11/14 04:10:44;;;;;;;31.98;20.20;;;10.30;99.90;;;;;;5107750;28;20016;-43
2021/11/14 04:13:10;;;;;;;33.08;21.00;;;10.30;99.90;;;;;;5108965;28;20081;-43
2021/11/14 04:15:36;;;;;;;32.08;20.55;;;10.30;99.90;;;;;;5107816;28;20059;-43
2021/11/14 04:18:02;;;;;;;30.35;19.55;;;10.30;99.90;;;;;;5108154;28;20023;-43
2021/11/14 04:20:31;;;;;;;31.35;19.25;;;10.30;99.90;;;;;;5108411;28;20023;-43
2021/11/14 04:23:00;;;;;;;28.75;18.98;;;10.40;99.90;;;;;;5108167;28;20535;-43
2021/11/14 04:25:27;;;;;;;32.33;20.23;;;10.40;99.90;;;;;;5107926;28;20027;-43
2021/11/14 04:27:59;;;;;;;29.30;20.38;;;10.40;99.90;;;;;;5108029;28;20060;-42
2021/11/14 04:30:26;;;;;;;33.35;20.90;;;10.40;99.90;;;;;;5108290;28;20028;-42
2021/11/14 04:32:53;;;;;;;30.88;18.55;;;10.40;99.90;;;;;;5107837;28;20027;-42
2021/11/14 04:35:18;;;;;;;32.50;20.10;;;10.40;99.90;;;;;;5108393;28;20080;-42
2021/11/14 04:37:48;;;;;;;32.47;19.95;;;10.40;99.90;;;;;;5107793;28;20483;-43
2021/11/14 04:40:14;;;;;;;31.83;20.00;;;10.40;99.90;;;;;;5107436;28;20028;-43
2021/11/14 04:42:43;;;;;;;30.05;19.27;;;10.40;99.90;;;;;;5107915;28;20022;-43
2021/11/14 04:45:09;;;;;;;34.50;21.33;;;10.40;99.90;;;;;;5107991;28;20023;-43
2021/11/14 04:47:38;;;;;;;31.33;21.00;;;10.40;99.90;;;;;;5106533;28;20035;-42
2021/11/14 04:50:07;;;;;;;34.42;21.35;;;10.40;99.90;;;;;;5108051;28;20059;-42
2021/11/14 04:52:36;;;;;;;32.58;21.08;;;10.40;99.90;;;;;;5106673;28;20016;-42
2021/11/14 04:55:01;;;;;;;35.15;22.23;;;10.40;99.90;;;;;;5107627;28;20023;-43
2021/11/14 04:57:27;;;;;;;27.52;18.05;;;10.40;99.90;;;;;;5107670;28;20023;-42
2021/11/14 04:59:52;;;;;;;30.63;18.77;;;10.40;99.90;;;;;;5107205;28;20031;-43
2021/11/14 05:02:19;;;;;;;28.65;18.52;;;10.40;99.90;;;;;;5106961;28;20062;-42
2021/11/14 05:04:44;;;;;;;34.33;21.38;;;10.40;99.90;;;;;;5107494;28;20042;-42
2021/11/14 05:07:10;;;;;;;32.25;20.05;;;10.40;99.90;;;;;;5106876;28;20467;-42
2021/11/14 05:09:36;;;;;;;34.65;20.95;;;10.40;99.90;;;;;;5107417;28;20024;-42
2021/11/14 05:12:02;;;;;;;34.90;20.80;;;10.40;99.90;;;;;;5107685;28;20027;-42
2021/11/14 05:14:27;;;;;;;31.60;19.40;;;10.40;99.90;;;;;;5106292;28;20028;-44
2021/11/14 05:16:53;;;;;;;27.50;17.65;;;10.40;99.90;;;;;;5107026;28;20031;-42
2021/11/14 05:19:18;;;;;;;32.35;19.45;;;10.40;99.90;;;;;;5108180;28;20034;-42
2021/11/14 05:21:47;;;;;;;34.47;20.33;;;10.40;99.90;;;;;;5106409;28;20478;-42
2021/11/14 05:24:13;;;;;;;28.02;18.92;;;10.40;99.90;;;;;;5096378;28;20027;-43
2021/11/14 05:26:39;;;;;;;31.63;20.13;;;10.40;99.90;;;;;;5107257;28;20137;-43
2021/11/14 05:29:05;;;;;;;34.90;22.48;;;10.40;99.90;;;;;;5106139;28;20071;-42
2021/11/14 05:31:30;;;;;;;31.90;20.27;;;10.40;99.90;;;;;;5106879;28;20054;-43
2021/11/14 05:33:56;;;;;;;32.90;22.05;;;10.40;99.90;;;;;;5107284;28;20027;-43
2021/11/14 05:36:23;;;;;;;28.08;19.13;;;10.40;99.90;;;;;;5106707;28;20047;-42
2021/11/14 05:38:50;;;;;;;38.10;22.58;;;10.40;99.90;;;;;;5106615;27;20467;-42
2021/11/14 05:41:15;;;;;;;35.50;22.73;;;10.40;99.90;;;;;;5107516;28;20106;-43
2021/11/14 05:43:41;;;;;;;35.33;21.98;;;10.40;99.90;;;;;;5106320;28;20525;-43
2021/11/14 05:46:06;;;;;;;33.60;21.73;;;10.40;99.90;;;;;;5107031;28;20515;-43
2021/11/14 05:48:32;;;;;;;34.33;21.95;;;10.40;99.90;;;;;;5106636;28;20074;-43
2021/11/14 05:50:59;;;;;;;35.05;21.98;;;10.40;99.90;;;;;;5106402;28;20027;-44
2021/11/14 05:53:25;;;;;;;35.17;22.30;;;10.40;99.90;;;;;;5106683;28;20102;-43
2021/11/14 05:55:50;;;;;;;30.67;20.63;;;10.40;99.90;;;;;;5106078;28;20593;-43
2021/11/14 05:58:25;;;;;;;34.03;22.55;;;10.40;99.90;;;;;;5107070;28;20038;-43
2021/11/14 06:01:08;;;;;;;41.40;23.80;;;10.40;99.90;;;;;;5110508;28;20027;-42
2021/11/14 06:06:00;;;;;;;37.45;23.13;;;10.40;99.90;;;;;;5110676;28;20028;-43
2021/11/14 06:08:26;;;;;;;36.63;22.52;;;10.50;99.90;;;;;;5111198;28;20496;-42
2021/11/14 06:10:53;;;;;;;34.85;22.45;;;10.40;99.90;;;;;;5110184;28;20371;-44
2021/11/14 06:13:21;;;;;;;36.78;21.10;;;10.50;99.90;;;;;;5110959;28;20084;-43
2021/11/14 06:15:50;;;;;;;30.42;20.00;;;10.50;99.90;;;;;;5110705;28;20044;-47
2021/11/14 06:18:16;;;;;;;31.15;20.50;;;10.50;99.90;;;;;;5110648;28;20024;-43
2021/11/14 06:20:43;;;;;;;34.92;21.98;;;10.50;99.90;;;;;;5110521;28;20042;-43
2021/11/14 06:23:10;;;;;;;36.10;21.38;;;10.40;99.90;;;;;;5110808;28;20040;-43
2021/11/14 06:25:36;;;;;;;34.50;21.88;;;10.40;99.90;;;;;;5109778;28;20459;-43
2021/11/14 06:28:03;;;;;;;34.50;20.77;;;10.50;99.90;;;;;;5110779;28;20023;-42
2021/11/14 06:30:29;;;;;;;32.97;20.85;;;10.50;99.90;;;;;;5110112;28;20035;-43
2021/11/14 06:32:54;;;;;;;30.75;20.90;;;10.50;99.90;;;;;;5110256;28;20020;-41
2021/11/14 06:35:20;;;;;;;29.90;19.35;;;10.50;99.90;;;;;;5110565;28;20428;-42
2021/11/14 06:37:46;;;;;;;30.13;20.80;;;10.50;99.90;;;;;;5110884;28;20550;-42
2021/11/14 06:40:12;;;;;;;31.83;21.08;;;10.50;99.90;;;;;;5109800;28;20462;-43
2021/11/14 06:42:38;;;;;;;32.13;19.85;;;10.50;99.90;;;;;;5110249;28;20023;-44
2021/11/14 06:45:04;;;;;;;37.70;24.00;;;10.50;99.90;;;;;;5109746;28;20027;-43
2021/11/14 06:47:30;;;;;;;32.53;20.80;;;10.50;99.90;;;;;;5110112;28;20034;-44
2021/11/14 06:49:55;;;;;;;35.70;21.55;;;10.50;99.90;;;;;;5109563;28;20032;-44
2021/11/14 06:52:22;;;;;;;37.30;23.33;;;10.50;99.90;;;;;;5110059;28;20020;-43
2021/11/14 06:54:49;;;;;;;35.38;23.08;;;10.50;99.90;;;;;;5110625;28;20039;-43
2021/11/14 06:57:15;;;;;;;31.40;20.52;;;10.50;99.90;;;;;;5109242;28;20498;-42
2021/11/14 06:59:40;;;;;;;35.33;22.13;;;10.50;99.90;;;;;;5109057;28;20036;-43
2021/11/14 07:02:10;;;;;;;31.70;19.98;;;10.50;99.90;;;;;;5109846;28;20027;-43
2021/11/14 07:04:36;;;;;;;35.70;21.70;;;10.50;99.90;;;;;;5109826;28;20445;-43
2021/11/14 07:07:03;;;;;;;29.58;19.67;;;10.50;99.90;;;;;;5108867;28;20019;-43
2021/11/14 07:09:28;;;;;;;32.38;20.30;;;10.50;99.90;;;;;;5109910;28;20410;-43
2021/11/14 07:11:54;;;;;;;33.15;20.70;;;10.50;99.90;;;;;;5109294;28;20030;-43
2021/11/14 07:14:24;;;;;;;28.23;18.15;;;10.50;99.90;;;;;;5109295;28;20053;-43
2021/11/14 07:16:53;;;;;;;27.63;17.77;;;10.50;99.90;;;;;;5110055;28;20054;-43
2021/11/14 07:19:19;;;;;;;36.08;21.13;;;10.50;99.90;;;;;;5109771;28;20515;-43
2021/11/14 07:21:45;;;;;;;33.58;21.70;;;10.50;99.90;;;;;;5108805;28;20092;-43
2021/11/14 07:24:11;;;;;;;35.05;20.92;;;10.50;99.90;;;;;;5109630;28;20035;-43
2021/11/14 07:26:37;;;;;;;33.92;19.52;;;10.50;99.90;;;;;;5109719;28;20023;-43
2021/11/14 07:29:04;;;;;;;31.38;18.35;;;10.50;99.90;;;;;;5111332;27;20035;-43
2021/11/14 07:31:30;;;;;;;32.78;19.88;;;10.50;99.90;;;;;;5120191;27;20106;-42
2021/11/14 07:33:55;;;;;;;34.83;20.13;;;10.50;99.90;;;;;;5109451;28;20470;-42
2021/11/14 07:36:21;;;;;;;31.10;18.90;;;10.50;99.90;;;;;;5107520;28;20081;-43
2021/11/14 07:38:47;;;;;;;31.30;18.45;;;10.50;99.90;;;;;;5107321;28;20394;-43
2021/11/14 07:41:13;;;;;;;34.05;19.98;;;10.50;99.90;;;;;;5107275;28;20016;-42
2021/11/14 07:43:39;;;;;;;24.50;16.33;;;10.60;99.90;;;;;;5107990;28;20062;-42
2021/11/14 07:46:08;;;;;;;25.15;16.45;;;10.50;99.90;;;;;;5108437;28;20051;-42
2021/11/14 07:48:34;;;;;;;31.27;18.13;;;10.50;99.90;;;;;;5107199;28;20049;-43
2021/11/14 07:51:01;;;;;;;25.15;16.15;;;10.60;99.90;;;;;;5108987;28;20024;-43
2021/11/14 07:53:27;;;;;;;28.27;17.73;;;10.50;99.90;;;;;;5107807;28;20085;-43
2021/11/14 07:55:53;;;;;;;25.67;15.85;;;10.50;99.90;;;;;;5107403;28;20089;-43
2021/11/14 07:58:20;;;;;;;23.08;15.60;;;10.60;99.90;;;;;;5107750;28;20024;-42
2021/11/14 08:00:46;;;;;;;23.65;15.20;;;10.60;99.90;;;;;;5107991;28;20036;-43
2021/11/14 08:03:14;;;;;;;28.33;17.10;;;10.60;99.90;;;;;;5106372;28;20023;-43
2021/11/14 08:05:41;;;;;;;26.98;17.15;;;10.60;99.90;;;;;;5106055;28;20562;-43
2021/11/14 08:08:07;;;;;;;30.08;18.65;;;10.60;99.90;;;;;;5107792;28;20462;-42
2021/11/14 08:10:34;;;;;;;29.63;17.58;;;10.60;99.90;;;;;;5104185;27;20050;-43
2021/11/14 08:13:04;;;;;;;27.75;16.25;;;10.60;99.90;;;;;;5104509;28;20033;-42
2021/11/14 08:15:29;;;;;;;30.85;17.70;;;10.60;99.90;;;;;;5108223;28;20551;-43
2021/11/14 08:17:55;;;;;;;29.85;17.88;;;10.60;99.90;;;;;;5107142;28;20019;-43
2021/11/14 08:20:20;;;;;;;30.10;17.75;;;10.60;99.90;;;;;;5108489;28;20032;-44
2021/11/14 08:22:47;;;;;;;29.60;16.48;;;10.70;99.90;;;;;;5107078;28;20023;-43
2021/11/14 08:25:14;;;;;;;30.73;18.10;;;10.60;99.90;;;;;;5106953;28;20098;-43
2021/11/14 08:27:40;;;;;;;30.48;17.15;;;10.70;99.90;;;;;;5107011;28;20652;-43
2021/11/14 08:30:12;;;;;;;29.90;17.65;;;10.70;99.90;;;;;;5107572;28;20129;-43
2021/11/14 08:32:38;;;;;;;25.58;15.63;;;10.70;99.90;;;;;;5108054;28;20027;-42
2021/11/14 08:35:05;;;;;;;25.70;15.00;;;10.70;99.90;;;;;;5107989;28;20110;-42
2021/11/14 08:37:31;;;;;;;26.15;15.75;;;10.80;99.90;;;;;;5107534;28;20043;-42
2021/11/14 08:39:57;;;;;;;27.85;16.40;;;10.80;99.90;;;;;;5107989;28;20106;-42
2021/11/14 08:42:23;;;;;;;28.92;17.30;;;10.80;99.90;;;;;;5108010;28;20130;-43
2021/11/14 08:44:49;;;;;;;30.98;18.02;;;10.80;99.90;;;;;;5107046;28;20019;-43
2021/11/14 08:47:15;;;;;;;28.65;16.25;;;10.80;99.90;;;;;;5108286;28;20063;-43
2021/11/14 08:49:41;;;;;;;24.35;15.00;;;10.80;99.90;;;;;;5107782;28;20039;-43
2021/11/14 08:52:08;;;;;;;28.00;16.38;;;10.90;99.90;;;;;;5107412;28;20408;-43
2021/11/14 08:54:40;;;;;;;27.73;17.33;;;10.80;99.90;;;;;;5107572;28;20124;-43
2021/11/14 08:57:06;;;;;;;26.33;16.20;;;10.80;99.90;;;;;;5107302;28;20114;-43
2021/11/14 08:59:31;;;;;;;23.98;14.95;;;10.80;99.90;;;;;;5107096;28;20027;-43
2021/11/14 09:02:03;;;;;;;22.80;14.40;;;10.90;99.90;;;;;;5107446;28;20076;-42
2021/11/14 09:04:29;;;;;;;24.17;14.50;;;10.90;99.90;;;;;;5107269;28;20106;-42
2021/11/14 09:06:55;;;;;;;26.27;15.80;;;10.90;99.90;;;;;;5107184;28;20479;-42
2021/11/14 09:09:22;;;;;;;25.50;15.95;;;10.90;99.90;;;;;;5107404;28;20356;-43
2021/11/14 09:11:49;;;;;;;22.60;15.13;;;10.90;99.90;;;;;;5096474;28;20469;-43
2021/11/14 09:14:15;;;;;;;24.75;14.82;;;11.00;99.90;;;;;;5106021;28;20106;-43
2021/11/14 09:16:41;;;;;;;27.15;16.10;;;11.00;99.90;;;;;;5107973;28;20019;-42
2021/11/14 09:19:09;;;;;;;25.83;15.55;;;11.00;99.90;;;;;;5107241;28;20051;-42
2021/11/14 09:21:37;;;;;;;27.45;16.30;;;11.00;99.90;;;;;;5106179;28;20047;-42
2021/11/14 09:24:04;;;;;;;22.00;14.43;;;11.10;99.90;;;;;;5106933;28;20042;-42
2021/11/14 09:26:30;;;;;;;25.75;15.55;;;11.10;99.90;;;;;;5107470;28;20076;-43
2021/11/14 09:28:58;;;;;;;26.38;16.48;;;11.10;99.90;;;;;;5106521;28;20456;-42
2021/11/14 09:31:23;;;;;;;29.20;16.58;;;11.10;99.90;;;;;;5108513;27;20020;-43
2021/11/14 09:33:51;;;;;;;26.77;16.60;;;11.20;99.90;;;;;;5105748;28;20023;-43
2021/11/14 09:36:17;;;;;;;29.20;16.10;;;11.20;99.90;;;;;;5106163;28;20073;-42
2021/11/14 09:38:42;;;;;;;25.55;15.55;;;11.20;99.90;;;;;;5107040;28;20039;-43
2021/11/14 09:41:11;;;;;;;27.95;16.60;;;11.20;99.90;;;;;;5106016;28;20030;-43
2021/11/14 09:43:37;;;;;;;34.42;18.23;;;11.20;99.90;;;;;;5107002;28;20012;-43
2021/11/14 09:46:03;;;;;;;27.77;16.50;;;11.20;99.90;;;;;;5106377;28;20475;-43
2021/11/14 09:48:29;;;;;;;24.63;15.32;;;11.20;99.90;;;;;;5106017;28;20042;-44
2021/11/14 09:50:56;;;;;;;26.17;16.13;;;11.20;99.90;;;;;;5106349;28;20024;-42
2021/11/14 09:53:26;;;;;;;24.20;15.50;;;11.20;99.90;;;;;;5107148;28;20479;-41
2021/11/14 09:55:52;;;;;;;26.70;15.40;;;11.20;99.90;;;;;;5105923;28;20066;-42
2021/11/14 09:58:17;;;;;;;23.55;14.98;;;11.20;99.90;;;;;;5106648;28;20471;-44
2021/11/14 10:00:43;;;;;;;22.48;14.30;;;11.20;99.90;;;;;;5106567;28;20517;-44
2021/11/14 10:03:09;;;;;;;26.40;15.43;;;11.20;99.90;;;;;;5104229;28;21087;-42
2021/11/14 10:05:39;;;;;;;24.73;15.05;;;11.10;99.90;;;;;;5106622;28;20728;-43
2021/11/14 10:08:06;;;;;;;29.27;17.52;;;11.10;99.90;;;;;;5106742;28;20019;-43
2021/11/14 10:10:38;;;;;;;25.10;15.82;;;11.20;99.90;;;;;;5105882;28;20042;-43
2021/11/14 10:13:14;;;;;;;26.52;17.15;;;11.20;99.90;;;;;;5106327;28;20387;-43
2021/11/14 10:15:41;;;;;;;28.92;17.65;;;11.20;99.90;;;;;;5105801;28;20057;-43
2021/11/14 10:18:07;;;;;;;27.17;16.45;;;11.20;99.90;;;;;;5104077;28;20035;-43
2021/11/14 10:20:37;;;;;;;25.05;15.48;;;11.30;99.90;;;;;;5106520;28;20024;-43
2021/11/14 10:23:12;;;;;;;26.58;15.95;;;11.30;99.90;;;;;;5105453;28;20024;-43
2021/11/14 10:25:39;;;;;;;23.45;15.07;;;11.30;99.90;;;;;;5086925;28;20031;-43
2021/11/14 10:28:05;;;;;;;25.60;15.55;;;11.30;99.90;;;;;;5100711;28;20070;-44
2021/11/14 10:30:35;;;;;;;25.05;15.93;;;11.30;99.90;;;;;;5105848;28;20081;-44
2021/11/14 10:33:07;;;;;;;25.30;16.23;;;11.30;99.90;;;;;;5105874;28;20028;-43
2021/11/14 10:35:34;;;;;;;24.42;16.27;;;11.30;99.90;;;;;;5106171;28;20019;-42
2021/11/14 10:38:02;;;;;;;24.88;16.33;;;11.40;99.90;;;;;;5105216;28;20030;-42
2021/11/14 10:40:30;;;;;;;25.80;15.50;;;11.40;99.90;;;;;;5106486;28;20108;-43
2021/11/14 10:42:59;;;;;;;24.38;16.17;;;11.40;99.90;;;;;;5106049;28;20030;-41
2021/11/14 10:45:28;;;;;;;22.05;14.95;;;11.40;99.90;;;;;;5106841;28;20059;-41
2021/11/14 10:48:03;;;;;;;26.65;17.83;;;11.40;99.90;;;;;;5109634;28;20725;-43
2021/11/14 10:50:32;;;;;;;27.15;16.33;;;11.40;99.90;;;;;;5110574;28;20071;-43
2021/11/14 10:53:00;;;;;;;25.73;15.27;;;11.40;99.90;;;;;;5109964;27;20015;-43
2021/11/14 10:55:33;;;;;;;26.10;15.88;;;11.40;99.90;;;;;;5109961;28;20089;-43
2021/11/14 10:57:59;;;;;;;26.80;16.35;;;11.50;99.90;;;;;;5110025;28;20107;-44
2021/11/14 11:00:28;;;;;;;23.65;15.77;;;11.50;99.90;;;;;;5109038;28;20023;-43
2021/11/14 11:02:54;;;;;;;27.98;17.30;;;11.50;99.90;;;;;;5109642;28;20019;-43
2021/11/14 11:05:23;;;;;;;26.67;16.50;;;11.50;99.90;;;;;;5109137;28;20024;-43
2021/11/14 11:08:05;;;;;;;27.02;15.82;;;11.50;99.90;;;;;;5110188;28;20023;-43
2021/11/14 11:10:52;;;;;;;27.30;15.95;;;11.50;99.90;;;;;;5107752;28;20084;-43
2021/11/14 11:13:43;;;;;;;26.00;16.27;;;11.50;99.90;;;;;;5108665;27;20027;-42
2021/11/14 11:16:22;;;;;;;25.15;16.30;;;11.50;99.90;;;;;;5092269;28;20529;-42
2021/11/14 11:19:00;;;;;;;26.77;15.75;;;11.50;99.90;;;;;;5110165;28;20035;-42
2021/11/14 11:21:38;;;;;;;26.45;16.77;;;11.60;99.90;;;;;;5109100;28;20047;-42
2021/11/14 11:24:15;;;;;;;28.65;17.55;;;11.60;99.90;;;;;;5109067;28;20510;-44
2021/11/14 11:26:57;;;;;;;28.58;18.23;;;11.60;99.90;;;;;;5108848;28;20050;-43
2021/11/14 11:29:23;;;;;;;28.25;16.83;;;11.70;99.90;;;;;;5109328;28;20039;-43
2021/11/14 11:31:50;;;;;;;27.15;17.05;;;11.60;99.90;;;;;;5109835;28;20043;-43
2021/11/14 11:34:17;;;;;;;26.75;16.80;;;11.70;99.90;;;;;;5108585;27;20050;-42
2021/11/14 11:36:43;;;;;;;25.17;17.13;;;11.70;99.90;;;;;;5109059;28;20023;-43
2021/11/14 11:39:08;;;;;;;26.77;16.45;;;11.70;99.90;;;;;;5109357;28;20085;-43
2021/11/14 11:41:36;;;;;;;25.55;14.95;;;11.70;99.90;;;;;;5108282;28;20027;-43
2021/11/14 11:44:03;;;;;;;25.13;15.60;;;11.70;99.90;;;;;;5109182;28;20066;-42
2021/11/14 11:46:32;;;;;;;24.23;15.50;;;11.80;99.90;;;;;;5109201;28;20504;-43
2021/11/14 11:49:01;;;;;;;23.65;14.88;;;11.80;99.90;;;;;;5105108;28;20040;-43
2021/11/14 11:51:41;;;;;;;25.55;16.92;;;11.80;99.90;;;;;;5108480;28;20064;-43
2021/11/14 11:54:13;;;;;;;25.23;15.35;;;11.90;99.90;;;;;;5108717;28;20547;-43
2021/11/14 11:56:48;;;;;;;27.58;16.88;;;11.80;99.90;;;;;;5107115;28;20108;-42
2021/11/14 11:59:32;;;;;;;26.05;15.82;;;11.90;99.90;;;;;;5108840;28;20054;-42
2021/11/14 12:02:04;;;;;;;25.20;15.68;;;11.90;99.90;;;;;;5107112;28;20024;-42
2021/11/14 12:04:36;;;;;;;27.73;16.27;;;11.90;99.90;;;;;;5105268;28;20149;-43
2021/11/14 12:07:04;;;;;;;27.60;16.65;;;11.80;99.90;;;;;;5108110;28;20026;-43
2021/11/14 12:09:58;;;;;;;23.42;14.73;;;11.90;99.90;;;;;;5108167;28;20169;-43
2021/11/14 12:12:36;;;;;;;23.60;14.60;;;11.90;99.90;;;;;;5108509;28;20045;-42
2021/11/14 12:15:19;;;;;;;25.30;16.15;;;11.90;99.90;;;;;;5105490;28;20462;-41
2021/11/14 12:17:55;;;;;;;25.13;16.10;;;12.00;99.90;;;;;;5103694;28;20020;-43
2021/11/14 12:20:43;;;;;;;25.67;15.70;;;12.00;99.90;;;;;;5107794;27;20088;-43
2021/11/14 12:23:38;;;;;;;26.42;16.42;;;12.00;99.90;;;;;;5104584;28;20031;-43
2021/11/14 12:26:10;;;;;;;27.20;16.38;;;12.10;99.90;;;;;;5104809;28;20016;-42
2021/11/14 12:28:40;;;;;;;26.58;16.90;;;12.10;99.90;;;;;;5106029;28;20508;-42
2021/11/14 12:31:14;;;;;;;26.50;15.52;;;12.20;99.90;;;;;;5107602;28;20020;-43
2021/11/14 12:33:52;;;;;;;24.60;14.82;;;12.10;99.90;;;;;;5097558;28;20027;-43